Terminal Aerodrome Forecast
Issued by NWS

Home | Current Version | Previous Version | Text Only | Print | Product List | Glossary On
Versions: 1 2 3 4 5 6 7 8 9 10 11 12 13 14 15 16 17 18 19
000
FTUS44 KOHX 251400 AAB
TAFCKV
TAF AMD
KCKV 251439Z 2515/2612 18010KT 6SM -SHRA BKN015 BKN030
      TEMPO 2515/2517 3SM TSRA BKN008CB OVC015
     FM251700 19012G17KT 5SM -RA VCTS OVC015CB
     FM251800 18012G18KT 6SM -RA VCTS OVC020CB
     FM252100 17010G16KT P6SM VCSH OVC030=

USA.gov is the U.S. government's official web portal to all federal, state and local government web resources and services.